createdAt,value
2022-10-18T00:00:29.133Z,158.61
2022-10-18T00:01:29.196Z,158.31
2022-10-18T00:02:29.321Z,159.21
2022-10-18T00:03:29.394Z,159.36
2022-10-18T00:04:29.431Z,159.06
2022-10-18T00:05:29.498Z,158.16
2022-10-18T00:06:29.573Z,159.36
2022-10-18T00:07:29.941Z,159.36
2022-10-18T00:08:29.767Z,158.91
2022-10-18T00:09:29.847Z,159.21
2022-10-18T00:10:29.894Z,159.97
2022-10-18T00:11:29.965Z,159.97
2022-10-18T00:12:30.072Z,159.36
2022-10-18T00:13:30.147Z,158.46
2022-10-18T00:14:30.232Z,158.76
2022-10-18T00:15:30.301Z,158.76
2022-10-18T00:16:30.406Z,158.31
2022-10-18T00:17:30.799Z,158.01
2022-10-18T00:18:30.754Z,157.13
2022-10-18T00:19:30.615Z,158.16
2022-10-18T00:20:30.687Z,157.71
2022-10-18T00:21:30.757Z,157.86
2022-10-18T00:22:31.079Z,157.42
2022-10-18T00:23:30.910Z,158.16
2022-10-18T00:24:30.981Z,157.86
2022-10-18T00:25:31.065Z,158.31
2022-10-18T00:26:31.152Z,158.01
2022-10-18T00:27:31.206Z,158.76
2022-10-18T00:28:31.345Z,159.21
2022-10-18T00:29:31.362Z,157.86
2022-10-18T00:30:31.439Z,157.86
2022-10-18T00:31:31.542Z,158.76
2022-10-18T00:32:31.969Z,158.46
2022-10-18T00:33:31.687Z,159.21
2022-10-18T00:34:31.780Z,159.81
2022-10-18T00:35:31.835Z,159.81
2022-10-18T00:36:31.907Z,160.27
2022-10-18T00:37:31.988Z,160.12
2022-10-18T00:38:32.087Z,160.73
2022-10-18T00:39:32.165Z,160.12
2022-10-18T00:40:32.252Z,159.21
2022-10-18T00:41:32.322Z,160.58
2022-10-18T00:42:32.648Z,160.42
2022-10-18T00:43:32.501Z,160.27
2022-10-18T00:44:32.584Z,159.97
2022-10-18T00:45:32.657Z,160.42
2022-10-18T00:46:32.741Z,161.19
2022-10-18T00:47:32.837Z,160.12
2022-10-18T00:48:32.902Z,161.50
2022-10-18T00:49:32.987Z,161.81
2022-10-18T00:50:33.071Z,160.88
2022-10-18T00:51:33.163Z,161.04
2022-10-18T00:52:33.565Z,161.04
2022-10-18T00:53:33.318Z,161.50
2022-10-18T00:54:33.407Z,162.60
2022-10-18T00:55:33.496Z,161.35
2022-10-18T00:56:33.575Z,162.13
2022-10-18T00:57:33.673Z,161.50
2022-10-18T00:58:33.717Z,161.97
2022-10-18T00:59:33.788Z,161.50
2022-10-18T01:00:33.871Z,161.97
2022-10-18T01:01:34.015Z,160.88
2022-10-18T01:02:34.189Z,160.27
2022-10-18T01:03:34.122Z,161.81
2022-10-18T01:04:34.210Z,161.04
2022-10-18T01:05:34.290Z,160.27
2022-10-18T01:06:34.363Z,159.97
2022-10-18T01:07:34.504Z,160.73
2022-10-18T01:08:34.508Z,160.42
2022-10-18T01:09:34.591Z,160.88
2022-10-18T01:10:34.664Z,161.19
2022-10-18T01:11:34.805Z,159.97
2022-10-18T01:12:34.843Z,161.04
2022-10-18T01:13:34.927Z,161.19
2022-10-18T01:14:34.999Z,160.42
2022-10-18T01:15:35.085Z,160.73
2022-10-18T01:16:35.180Z,160.12
2022-10-18T01:17:35.260Z,160.58
2022-10-18T01:18:35.345Z,161.81
2022-10-18T01:19:35.418Z,161.50
2022-10-18T01:20:35.581Z,160.12
2022-10-18T01:21:35.657Z,161.19
2022-10-18T01:22:35.658Z,159.97
2022-10-18T01:23:35.750Z,161.04
2022-10-18T01:24:35.812Z,159.36
2022-10-18T01:25:35.925Z,159.36
2022-10-18T01:26:35.989Z,159.06
2022-10-18T01:27:36.033Z,158.16
2022-10-18T01:28:36.170Z,157.42
2022-10-18T01:29:36.186Z,157.27
2022-10-18T01:30:36.248Z,157.71
2022-10-18T01:31:36.347Z,156.54
2022-10-18T01:32:36.428Z,157.27
2022-10-18T01:33:36.499Z,156.98
2022-10-18T01:34:36.569Z,158.16
2022-10-18T01:35:36.638Z,157.57
2022-10-18T01:36:36.748Z,158.16
2022-10-18T01:37:36.811Z,157.86
2022-10-18T01:38:36.903Z,157.86
2022-10-18T01:39:36.952Z,158.61
2022-10-18T01:40:37.016Z,157.71
2022-10-18T01:41:37.132Z,158.76
2022-10-18T01:42:37.164Z,158.46
2022-10-18T01:43:37.238Z,159.66
2022-10-18T01:44:37.308Z,159.36
2022-10-18T01:45:37.382Z,158.61
2022-10-18T01:46:37.475Z,159.51
2022-10-18T01:47:37.568Z,159.66
2022-10-18T01:48:37.621Z,160.58
2022-10-18T01:49:37.692Z,160.12
2022-10-18T01:50:37.757Z,160.12
2022-10-18T01:51:37.848Z,160.42
2022-10-18T01:52:37.915Z,159.51
2022-10-18T01:53:38.024Z,161.35
2022-10-18T01:54:38.076Z,161.35
2022-10-18T01:55:38.139Z,160.88
2022-10-18T01:56:38.242Z,162.28
2022-10-18T01:57:38.308Z,161.66
2022-10-18T01:58:38.383Z,162.28
2022-10-18T01:59:38.467Z,162.13
2022-10-18T02:00:38.542Z,162.60
2022-10-18T02:01:38.622Z,162.60
2022-10-18T02:02:38.703Z,162.75
2022-10-18T02:03:38.803Z,162.44
2022-10-18T02:04:38.872Z,162.75
2022-10-18T02:05:38.946Z,162.75
2022-10-18T02:06:39.029Z,164.02
2022-10-18T02:07:39.118Z,163.07
2022-10-18T02:08:39.179Z,163.70
2022-10-18T02:09:39.255Z,164.35
2022-10-18T02:10:39.344Z,163.70
2022-10-18T02:11:39.447Z,164.51
2022-10-18T02:12:39.501Z,164.35
2022-10-18T02:13:39.598Z,163.23
2022-10-18T02:14:39.688Z,164.67
2022-10-18T02:15:39.769Z,164.35
2022-10-18T02:16:39.908Z,164.83
2022-10-18T02:17:39.933Z,164.02
2022-10-18T02:18:40.027Z,164.83
2022-10-18T02:19:40.084Z,164.67
2022-10-18T02:20:40.158Z,164.99
2022-10-18T02:21:40.249Z,164.83
2022-10-18T02:22:40.303Z,165.80
2022-10-18T02:23:40.388Z,165.80
2022-10-18T02:24:40.482Z,165.97
2022-10-18T02:25:40.551Z,165.64
2022-10-18T02:26:40.638Z,166.79
2022-10-18T02:27:40.706Z,166.79
2022-10-18T02:28:40.796Z,166.46
2022-10-18T02:29:40.879Z,166.96
2022-10-18T02:30:40.944Z,167.12
2022-10-18T02:31:41.045Z,166.46
2022-10-18T02:32:41.089Z,164.99
2022-10-18T02:33:41.192Z,165.48
2022-10-18T02:34:41.261Z,164.67
2022-10-18T02:35:41.352Z,165.15
2022-10-18T02:36:41.438Z,165.80
2022-10-18T02:37:41.530Z,164.83
2022-10-18T02:38:41.605Z,165.48
2022-10-18T02:39:41.688Z,163.70
2022-10-18T02:40:41.780Z,162.75
2022-10-18T02:41:41.888Z,161.50
2022-10-18T02:42:41.929Z,162.60
2022-10-18T02:43:42.037Z,162.44
2022-10-18T02:44:42.104Z,162.13
2022-10-18T02:45:42.174Z,162.44
2022-10-18T02:46:42.258Z,162.13
2022-10-18T02:47:42.334Z,161.50
2022-10-18T02:48:42.403Z,161.66
2022-10-18T02:49:42.486Z,161.66
2022-10-18T02:50:42.576Z,162.13
2022-10-18T02:51:42.652Z,160.73
2022-10-18T02:52:42.707Z,159.81
2022-10-18T02:53:42.820Z,159.21
2022-10-18T02:54:42.843Z,158.31
2022-10-18T02:55:42.936Z,157.13
2022-10-18T02:56:42.996Z,157.57
2022-10-18T02:57:43.069Z,157.42
2022-10-18T02:58:43.182Z,156.40
2022-10-18T02:59:43.236Z,157.13
2022-10-18T03:00:43.280Z,155.82
2022-10-18T03:01:43.444Z,155.38
2022-10-18T03:02:43.462Z,155.53
2022-10-18T03:03:43.531Z,156.10
2022-10-18T03:04:43.611Z,155.53
2022-10-18T03:05:43.700Z,155.24
2022-10-18T03:06:43.792Z,155.82
2022-10-18T03:07:43.886Z,155.53
2022-10-18T03:08:43.967Z,156.54
2022-10-18T03:09:44.059Z,155.24
2022-10-18T03:10:44.120Z,154.53
2022-10-18T03:11:44.209Z,154.38
2022-10-18T03:12:44.300Z,154.10
2022-10-18T03:13:44.389Z,155.10
2022-10-18T03:14:44.421Z,154.95
2022-10-18T03:15:44.509Z,154.38
2022-10-18T03:16:44.613Z,154.81
2022-10-18T03:17:44.655Z,155.96
2022-10-18T03:18:44.743Z,154.10
2022-10-18T03:19:44.840Z,155.82
2022-10-18T03:20:44.940Z,155.96
2022-10-18T03:21:45.023Z,155.67
2022-10-18T03:22:45.064Z,155.38
2022-10-18T03:23:45.170Z,155.96
2022-10-18T03:24:45.217Z,156.40
2022-10-18T03:25:46.413Z,158.31
2022-10-18T03:26:45.394Z,158.01
2022-10-18T03:27:45.504Z,158.01
2022-10-18T03:28:45.650Z,157.42
2022-10-18T03:29:45.671Z,157.57
2022-10-18T03:30:45.940Z,157.86
2022-10-18T03:31:45.812Z,158.31
2022-10-18T03:32:45.894Z,156.83
2022-10-18T03:33:45.967Z,156.25
2022-10-18T03:34:46.075Z,154.10
2022-10-18T03:35:46.136Z,154.24
2022-10-18T03:36:46.215Z,152.43
2022-10-18T03:37:46.297Z,151.19
2022-10-18T03:38:46.417Z,151.60
2022-10-18T03:39:46.473Z,150.78
2022-10-18T03:40:46.563Z,149.58
2022-10-18T03:41:46.630Z,149.58
2022-10-18T03:42:46.711Z,148.26
2022-10-18T03:43:46.878Z,148.13
2022-10-18T03:44:46.887Z,147.61
2022-10-18T03:45:46.979Z,147.09
2022-10-18T03:46:47.048Z,145.82
2022-10-18T03:47:47.138Z,145.82
2022-10-18T03:48:47.225Z,144.56
2022-10-18T03:49:47.292Z,144.44
2022-10-18T03:50:47.378Z,143.33
2022-10-18T03:51:47.449Z,142.48
2022-10-18T03:52:47.527Z,141.64
2022-10-18T03:53:47.632Z,141.28
2022-10-18T03:54:47.701Z,140.46
2022-10-18T03:55:47.786Z,141.28
2022-10-18T03:56:47.874Z,140.57
2022-10-18T03:57:47.940Z,139.18
2022-10-18T03:58:48.014Z,138.95
2022-10-18T03:59:48.190Z,137.81
2022-10-18T04:00:48.232Z,137.81
2022-10-18T04:01:48.327Z,138.26
2022-10-18T04:02:51.937Z,137.36
2022-10-18T04:03:48.436Z,136.80
2022-10-18T04:04:48.498Z,137.13
2022-10-18T04:05:48.613Z,136.24
2022-10-18T04:06:48.679Z,135.91
2022-10-18T04:07:48.755Z,136.13
2022-10-18T04:08:48.821Z,135.80
2022-10-18T04:09:48.895Z,136.35
2022-10-18T04:10:48.987Z,136.91
2022-10-18T04:11:49.084Z,135.48
2022-10-18T04:12:49.146Z,134.61
2022-10-18T04:13:49.221Z,134.39
2022-10-18T04:14:49.312Z,134.50
2022-10-18T04:15:49.407Z,133.01
2022-10-18T04:16:49.484Z,132.07
2022-10-18T04:17:49.733Z,131.45
2022-10-18T04:18:49.693Z,131.66
2022-10-18T04:19:49.742Z,130.63
2022-10-18T04:20:49.817Z,130.43
2022-10-18T04:21:49.884Z,131.04
2022-10-18T04:22:49.992Z,131.35
2022-10-18T04:23:50.055Z,131.55
2022-10-18T04:24:50.168Z,131.24
2022-10-18T04:25:50.252Z,130.63
2022-10-18T04:26:50.295Z,131.24
2022-10-18T04:27:50.438Z,130.53
2022-10-18T04:28:50.555Z,130.53
2022-10-18T04:29:50.561Z,130.63
2022-10-18T04:30:50.618Z,130.33
2022-10-18T04:31:50.709Z,131.14
2022-10-18T04:32:50.793Z,131.55
2022-10-18T04:33:50.887Z,131.35
2022-10-18T04:34:50.972Z,131.76
2022-10-18T04:35:51.029Z,131.76
2022-10-18T04:36:51.087Z,132.07
2022-10-18T04:37:51.231Z,132.17
2022-10-18T04:38:51.237Z,132.59
2022-10-18T04:39:53.603Z,132.07
2022-10-18T04:40:51.424Z,133.01
2022-10-18T04:41:51.522Z,133.54
2022-10-18T04:42:51.630Z,133.01
2022-10-18T04:43:51.671Z,132.90
2022-10-18T04:44:51.767Z,132.90
2022-10-18T04:45:51.844Z,133.33
2022-10-18T04:46:51.918Z,132.90
2022-10-18T04:47:51.978Z,133.86
2022-10-18T04:48:52.031Z,133.01
2022-10-18T04:49:52.130Z,133.96
2022-10-18T04:50:52.216Z,133.54
2022-10-18T04:51:52.270Z,133.64
2022-10-18T04:52:52.359Z,132.90
2022-10-18T04:53:52.446Z,132.90
2022-10-18T04:54:52.515Z,133.12
2022-10-18T04:55:52.628Z,133.22
2022-10-18T04:56:52.689Z,133.22
2022-10-18T04:57:52.770Z,132.80
2022-10-18T04:58:52.827Z,133.75
2022-10-18T04:59:52.926Z,133.43
2022-10-18T05:00:53.031Z,133.22
2022-10-18T05:01:53.143Z,132.49
2022-10-18T05:02:53.116Z,133.43
2022-10-18T05:03:53.193Z,133.43
2022-10-18T05:04:53.267Z,133.96
2022-10-18T05:06:02.599Z,133.33
2022-10-18T05:06:53.449Z,133.43
2022-10-18T05:07:53.523Z,133.64
2022-10-18T05:08:53.595Z,133.64
2022-10-18T05:09:53.705Z,134.29
2022-10-18T05:10:53.834Z,134.93
2022-10-18T05:11:53.832Z,135.04
2022-10-18T05:12:53.931Z,135.69
2022-10-18T05:13:54.001Z,137.58
2022-10-18T05:14:56.240Z,138.26
2022-10-18T05:15:54.153Z,138.95
2022-10-18T05:16:54.237Z,139.29
2022-10-18T05:17:54.310Z,140.34
2022-10-18T05:18:54.406Z,139.41
2022-10-18T05:19:54.473Z,141.04
2022-10-18T05:20:54.583Z,141.76
2022-10-18T05:21:54.631Z,142.00
2022-10-18T05:22:54.747Z,142.60
2022-10-18T05:23:54.852Z,142.36
2022-10-18T05:24:54.894Z,142.60
2022-10-18T05:25:55.013Z,142.96
2022-10-18T05:26:55.053Z,143.82
2022-10-18T05:27:55.123Z,144.93
2022-10-18T05:28:55.308Z,144.68
2022-10-18T05:29:55.289Z,145.82
2022-10-18T05:30:55.355Z,145.06
2022-10-18T05:31:55.444Z,145.94
2022-10-18T05:32:55.517Z,145.82
2022-10-18T05:33:55.617Z,145.94
2022-10-18T05:34:55.726Z,146.07
2022-10-18T05:35:55.762Z,146.07
2022-10-18T05:36:55.864Z,146.07
2022-10-18T05:37:55.909Z,147.22
2022-10-18T05:38:57.570Z,146.45
2022-10-18T05:39:56.090Z,147.09
2022-10-18T05:40:56.148Z,147.48
2022-10-18T05:41:56.211Z,147.35
2022-10-18T05:42:56.303Z,147.74
2022-10-18T05:43:56.401Z,147.48
2022-10-18T05:44:56.512Z,147.61
2022-10-18T05:45:56.562Z,147.22
2022-10-18T05:46:56.648Z,147.87
2022-10-18T05:47:56.706Z,147.87
2022-10-18T05:48:56.786Z,147.87
2022-10-18T05:49:56.901Z,148.78
2022-10-18T05:50:56.939Z,148.78
2022-10-18T05:51:57.096Z,148.91
2022-10-18T05:53:02.707Z,148.65
2022-10-18T05:53:57.169Z,149.98
2022-10-18T05:54:57.306Z,149.58
2022-10-18T05:55:57.324Z,150.11
2022-10-18T05:56:57.433Z,149.84
2022-10-18T05:57:57.505Z,150.51
2022-10-18T05:58:57.574Z,150.92
2022-10-18T05:59:57.658Z,151.19
2022-10-18T06:00:57.719Z,150.92
2022-10-18T06:01:57.836Z,151.05
2022-10-18T06:03:00.230Z,151.87
2022-10-18T06:03:57.942Z,152.29
2022-10-18T06:04:58.034Z,152.43
2022-10-18T06:05:58.100Z,152.43
2022-10-18T06:06:58.157Z,153.40
2022-10-18T06:07:58.247Z,152.70
2022-10-18T06:08:58.332Z,153.26
2022-10-18T06:09:58.411Z,153.96
2022-10-18T06:10:58.480Z,154.24
2022-10-18T06:11:58.544Z,154.95
2022-10-18T06:12:58.623Z,155.24
2022-10-18T06:13:58.728Z,154.53
2022-10-18T06:14:58.797Z,155.96
2022-10-18T06:15:58.828Z,157.27
2022-10-18T06:16:58.919Z,156.83
2022-10-18T06:17:58.998Z,158.16
2022-10-18T06:18:59.113Z,157.42
2022-10-18T06:19:59.122Z,159.06
2022-10-18T06:20:59.250Z,158.01
2022-10-18T06:21:59.273Z,158.01
2022-10-18T06:22:59.384Z,159.51
2022-10-18T06:23:59.461Z,158.31
2022-10-18T06:24:59.526Z,158.61
2022-10-18T06:25:59.612Z,159.21
2022-10-18T06:26:59.732Z,158.61
2022-10-18T06:27:59.758Z,159.97
2022-10-18T06:28:59.997Z,158.76
2022-10-18T06:29:59.909Z,158.76
2022-10-18T06:31:00.029Z,158.31
2022-10-18T06:32:00.103Z,158.01
2022-10-18T06:33:00.160Z,159.81
2022-10-18T06:34:00.263Z,159.51
2022-10-18T06:35:00.318Z,158.16
2022-10-18T06:36:00.390Z,159.21
2022-10-18T06:37:00.485Z,159.06
2022-10-18T06:38:00.534Z,159.06
2022-10-18T06:39:00.629Z,159.06
2022-10-18T06:40:00.678Z,158.91
2022-10-18T06:41:00.762Z,159.21
2022-10-18T06:42:00.834Z,160.12
2022-10-18T06:43:19.431Z,158.76
2022-10-18T06:44:01.003Z,159.06
2022-10-18T06:45:01.085Z,160.42
2022-10-18T06:46:01.184Z,159.36
2022-10-18T06:47:01.274Z,159.21
2022-10-18T06:48:01.325Z,158.91
2022-10-18T06:49:01.504Z,159.66
2022-10-18T06:50:01.499Z,159.06
2022-10-18T06:51:01.541Z,159.21
2022-10-18T06:52:01.616Z,158.76
2022-10-18T06:53:01.718Z,159.21
2022-10-18T06:54:18.811Z,159.51
2022-10-18T06:55:04.198Z,160.73
2022-10-18T06:56:01.973Z,159.36
2022-10-18T06:57:02.013Z,159.81
2022-10-18T06:58:02.072Z,160.12
2022-10-18T06:59:02.181Z,159.66
2022-10-18T07:00:02.271Z,159.51
2022-10-18T07:01:02.293Z,160.27
2022-10-18T07:02:02.487Z,160.27
2022-10-18T07:03:02.473Z,159.81
2022-10-18T07:04:02.586Z,159.81
2022-10-18T07:05:02.630Z,159.21
2022-10-18T07:06:02.728Z,158.16
2022-10-18T07:07:02.815Z,159.81
2022-10-18T07:08:02.854Z,159.21
2022-10-18T07:09:02.981Z,159.97
2022-10-18T07:10:03.026Z,158.31
2022-10-18T07:11:03.136Z,158.91
2022-10-18T07:12:03.223Z,158.16
2022-10-18T07:13:27.433Z,158.16
2022-10-18T07:14:03.398Z,157.71
2022-10-18T07:15:08.251Z,158.76
2022-10-18T07:16:03.563Z,158.01
2022-10-18T07:17:03.648Z,159.66
2022-10-18T07:18:03.669Z,159.36
2022-10-18T07:19:03.814Z,159.66
2022-10-18T07:20:03.859Z,158.91
2022-10-18T07:21:03.938Z,158.46
2022-10-18T07:22:04.022Z,158.76
2022-10-18T07:23:04.092Z,157.86
2022-10-18T07:24:04.190Z,158.61
2022-10-18T07:25:04.256Z,159.06
2022-10-18T07:26:04.339Z,159.81
2022-10-18T07:27:04.420Z,159.21
2022-10-18T07:28:04.532Z,159.81
2022-10-18T07:29:04.709Z,159.36
2022-10-18T07:30:04.676Z,159.51
2022-10-18T07:31:06.091Z,159.36
2022-10-18T07:32:04.879Z,159.66
2022-10-18T07:33:04.932Z,158.91
2022-10-18T07:34:05.009Z,159.81
2022-10-18T07:35:05.143Z,158.61
2022-10-18T07:36:05.160Z,160.27
2022-10-18T07:37:05.244Z,160.27
2022-10-18T07:38:05.326Z,159.51
2022-10-18T07:39:05.419Z,159.66
2022-10-18T07:40:05.491Z,160.42
2022-10-18T07:41:05.571Z,159.36
2022-10-18T07:42:05.647Z,160.42
2022-10-18T07:43:08.249Z,160.12
2022-10-18T07:44:05.820Z,160.73
2022-10-18T07:45:05.922Z,159.81
2022-10-18T07:46:05.975Z,160.42
2022-10-18T07:47:06.086Z,161.50
2022-10-18T07:48:06.122Z,160.42
2022-10-18T07:49:06.209Z,161.19
2022-10-18T07:50:06.275Z,161.50
2022-10-18T07:51:06.367Z,161.81
2022-10-18T07:52:06.479Z,162.13
2022-10-18T07:53:06.571Z,162.44
2022-10-18T07:54:06.618Z,161.04
2022-10-18T07:55:06.700Z,161.97
2022-10-18T07:56:08.780Z,161.66
2022-10-18T07:57:06.920Z,161.50
2022-10-18T07:58:06.989Z,162.60
2022-10-18T07:59:07.058Z,162.13
2022-10-18T08:00:07.103Z,161.81
2022-10-18T08:01:07.260Z,161.50
2022-10-18T08:02:07.263Z,163.39
2022-10-18T08:03:07.355Z,162.60
2022-10-18T08:04:09.079Z,162.13
2022-10-18T08:05:07.505Z,162.13
2022-10-18T08:06:07.592Z,164.02
2022-10-18T08:07:07.680Z,162.75
2022-10-18T08:08:08.214Z,162.75
2022-10-18T08:09:07.806Z,162.60
2022-10-18T08:10:07.905Z,162.13
2022-10-18T08:11:07.975Z,162.13
2022-10-18T08:12:08.049Z,162.91
2022-10-18T08:13:08.139Z,163.39
2022-10-18T08:14:08.208Z,162.60
2022-10-18T08:15:08.306Z,161.97
2022-10-18T08:16:08.363Z,162.13
2022-10-18T08:17:08.461Z,161.81
2022-10-18T08:18:08.575Z,161.81
2022-10-18T08:19:08.622Z,161.35
2022-10-18T08:20:12.406Z,161.50
2022-10-18T08:21:08.774Z,161.50
2022-10-18T08:22:08.867Z,162.28
2022-10-18T08:23:09.002Z,160.58
2022-10-18T08:24:09.031Z,160.88
2022-10-18T08:25:09.147Z,161.35
2022-10-18T08:26:09.208Z,161.50
2022-10-18T08:27:09.301Z,162.44
2022-10-18T08:28:09.424Z,161.50
2022-10-18T08:29:21.894Z,160.73
2022-10-18T08:30:09.538Z,161.04
2022-10-18T08:31:09.603Z,161.81
2022-10-18T08:32:09.684Z,161.04
2022-10-18T08:33:09.795Z,162.60
2022-10-18T08:34:09.855Z,161.04
2022-10-18T08:35:09.946Z,161.04
2022-10-18T08:36:09.987Z,162.28
2022-10-18T08:37:10.101Z,161.81
2022-10-18T08:38:11.451Z,161.97
2022-10-18T08:39:10.251Z,162.28
2022-10-18T08:40:10.277Z,162.44
2022-10-18T08:41:10.366Z,162.44
2022-10-18T08:42:10.438Z,162.60
2022-10-18T08:43:10.580Z,162.91
2022-10-18T08:44:10.621Z,163.07
2022-10-18T08:45:23.293Z,162.60
2022-10-18T08:46:10.777Z,162.13
2022-10-18T08:47:10.880Z,162.44
2022-10-18T08:48:10.950Z,162.28
2022-10-18T08:49:11.031Z,161.97
2022-10-18T08:50:11.112Z,163.54
2022-10-18T08:51:11.187Z,162.44
2022-10-18T08:52:11.282Z,163.54
2022-10-18T08:53:11.367Z,162.44
2022-10-18T08:54:11.444Z,164.67
2022-10-18T08:55:11.525Z,162.44
2022-10-18T08:56:11.598Z,163.23
2022-10-18T08:57:11.774Z,162.91
2022-10-18T08:58:11.774Z,162.91
2022-10-18T08:59:11.851Z,162.75
2022-10-18T09:00:11.934Z,163.54
2022-10-18T09:01:12.010Z,164.18
2022-10-18T09:02:12.100Z,163.39
2022-10-18T09:03:12.236Z,162.44
2022-10-18T09:04:12.249Z,164.67
2022-10-18T09:05:12.337Z,163.07
2022-10-18T09:06:12.410Z,163.39
2022-10-18T09:07:12.495Z,163.86
2022-10-18T09:08:12.570Z,163.70
2022-10-18T09:09:12.665Z,164.18
2022-10-18T09:10:12.838Z,164.67
2022-10-18T09:11:12.939Z,164.67
2022-10-18T09:12:12.908Z,164.51
2022-10-18T09:13:12.946Z,164.67
2022-10-18T09:14:13.018Z,164.02
2022-10-18T09:15:13.150Z,164.02
2022-10-18T09:16:13.198Z,164.02
2022-10-18T09:17:15.934Z,164.51
2022-10-18T09:18:13.392Z,164.35
2022-10-18T09:19:13.446Z,164.18
2022-10-18T09:20:13.528Z,165.48
2022-10-18T09:21:13.642Z,164.99
2022-10-18T09:22:13.697Z,164.67
2022-10-18T09:23:13.779Z,165.15
2022-10-18T09:24:13.855Z,166.29
2022-10-18T09:25:13.954Z,166.13
2022-10-18T09:26:14.012Z,165.97
2022-10-18T09:27:14.116Z,165.80
2022-10-18T09:28:14.191Z,166.29
2022-10-18T09:29:14.393Z,166.29
2022-10-18T09:30:14.346Z,166.29
2022-10-18T09:31:14.442Z,166.62
2022-10-18T09:32:14.536Z,166.79
2022-10-18T09:33:14.599Z,167.96
2022-10-18T09:34:14.677Z,166.46
2022-10-18T09:35:14.780Z,166.96
2022-10-18T09:36:14.835Z,166.79
2022-10-18T09:37:14.937Z,168.63
2022-10-18T09:38:15.057Z,167.46
2022-10-18T09:39:15.149Z,167.79
2022-10-18T09:40:18.094Z,168.12
2022-10-18T09:41:15.238Z,167.62
2022-10-18T09:42:15.351Z,167.29
2022-10-18T09:43:15.412Z,168.12
2022-10-18T09:44:15.564Z,168.12
2022-10-18T09:45:15.600Z,168.97
2022-10-18T09:46:15.679Z,168.46
2022-10-18T09:47:16.855Z,168.46
2022-10-18T09:48:15.868Z,168.97
2022-10-18T09:49:16.468Z,169.14
2022-10-18T09:50:16.050Z,168.80
2022-10-18T09:51:16.094Z,168.46
2022-10-18T09:52:16.197Z,168.46
2022-10-18T09:53:16.263Z,168.97
2022-10-18T09:54:16.388Z,167.62
2022-10-18T09:55:16.388Z,168.97
2022-10-18T09:56:16.468Z,169.31
2022-10-18T09:57:16.567Z,169.65
2022-10-18T09:58:16.646Z,169.14
2022-10-18T09:59:16.706Z,169.99
2022-10-18T10:00:16.790Z,169.14
2022-10-18T10:01:16.859Z,169.48
2022-10-18T10:02:17.007Z,169.31
2022-10-18T10:03:17.033Z,169.65
2022-10-18T10:04:17.118Z,169.65
2022-10-18T10:05:17.153Z,170.17
2022-10-18T10:06:17.326Z,168.97
2022-10-18T10:07:17.311Z,169.65
2022-10-18T10:08:17.469Z,169.82
2022-10-18T10:09:17.484Z,169.31
2022-10-18T10:10:17.572Z,170.34
2022-10-18T10:11:17.639Z,168.97
2022-10-18T10:12:17.955Z,168.80
2022-10-18T10:13:17.798Z,169.99
2022-10-18T10:14:17.920Z,169.65
2022-10-18T10:15:17.940Z,171.03
2022-10-18T10:16:18.034Z,169.82
2022-10-18T10:17:18.120Z,170.51
2022-10-18T10:18:18.258Z,170.86
2022-10-18T10:19:18.234Z,170.17
2022-10-18T10:20:18.348Z,170.68
2022-10-18T10:21:18.441Z,170.68
2022-10-18T10:22:18.502Z,171.38
2022-10-18T10:24:18.651Z,170.34
2022-10-18T10:25:18.725Z,170.86
2022-10-18T10:26:18.816Z,170.86
2022-10-18T10:27:18.873Z,170.17
2022-10-18T10:28:18.960Z,171.03
2022-10-18T10:29:33.488Z,171.03
2022-10-18T10:30:19.159Z,170.68
2022-10-18T10:31:19.183Z,171.21
2022-10-18T10:32:19.309Z,170.68
2022-10-18T10:33:19.334Z,170.86
2022-10-18T10:34:19.440Z,170.34
2022-10-18T10:35:33.992Z,170.86
2022-10-18T10:36:19.594Z,170.34
2022-10-18T10:37:19.637Z,169.99
2022-10-18T10:38:19.744Z,169.48
2022-10-18T10:39:19.792Z,169.82
2022-10-18T10:40:22.135Z,169.99
2022-10-18T10:41:20.037Z,169.31
2022-10-18T10:42:20.050Z,169.48
2022-10-18T10:43:36.509Z,169.31
2022-10-18T10:44:20.196Z,169.82
2022-10-18T10:45:20.305Z,167.29
2022-10-18T10:46:20.391Z,168.29
2022-10-18T10:47:20.485Z,167.79
2022-10-18T10:48:20.508Z,167.79
2022-10-18T10:49:39.262Z,168.46
2022-10-18T10:50:20.711Z,167.62
2022-10-18T10:51:20.735Z,167.62
2022-10-18T10:52:28.751Z,167.62
2022-10-18T10:53:20.936Z,166.29
2022-10-18T10:54:20.975Z,167.12
2022-10-18T10:55:34.994Z,166.62
2022-10-18T10:56:21.163Z,166.79
2022-10-18T10:57:21.271Z,166.79
2022-10-18T10:58:21.341Z,167.62
2022-10-18T10:59:21.426Z,167.29
2022-10-18T11:00:21.513Z,166.46
2022-10-18T11:01:21.569Z,166.96
2022-10-18T11:02:21.664Z,167.12
2022-10-18T11:03:30.012Z,165.80
2022-10-18T11:04:21.900Z,165.48
2022-10-18T11:05:21.911Z,165.97
2022-10-18T11:06:21.987Z,165.97
2022-10-18T11:07:22.066Z,164.35
2022-10-18T11:08:24.056Z,165.15
2022-10-18T11:09:22.253Z,165.31
2022-10-18T11:10:22.294Z,164.35
2022-10-18T11:11:23.318Z,164.51
2022-10-18T11:12:22.469Z,165.48
2022-10-18T11:13:22.524Z,164.51
2022-10-18T11:14:26.852Z,164.99
2022-10-18T11:15:22.726Z,164.83
2022-10-18T11:16:22.761Z,164.67
2022-10-18T11:17:22.879Z,164.99
2022-10-18T11:18:22.923Z,164.18
2022-10-18T11:19:25.155Z,164.99
2022-10-18T11:20:23.074Z,164.51
2022-10-18T11:21:23.128Z,165.48
2022-10-18T11:22:23.221Z,164.02
2022-10-18T11:23:23.341Z,164.51
2022-10-18T11:24:23.567Z,164.35
2022-10-18T11:25:23.499Z,164.99
2022-10-18T11:26:23.544Z,164.35
2022-10-18T11:27:23.642Z,164.83
2022-10-18T11:28:23.847Z,165.15
2022-10-18T11:29:23.780Z,164.67
2022-10-18T11:30:23.906Z,165.97
2022-10-18T11:31:23.953Z,164.35
2022-10-18T11:32:24.007Z,164.51
2022-10-18T11:33:33.649Z,164.51
2022-10-18T11:34:24.211Z,164.35
2022-10-18T11:35:24.268Z,164.02
2022-10-18T11:37:30.268Z,163.86
2022-10-18T11:38:24.487Z,164.18
2022-10-18T11:39:24.566Z,164.18
2022-10-18T11:40:24.633Z,166.13
2022-10-18T11:41:24.774Z,164.83
2022-10-18T11:42:24.778Z,164.83
2022-10-18T11:43:30.305Z,164.02
2022-10-18T11:44:24.955Z,163.86
2022-10-18T11:45:25.099Z,164.83
2022-10-18T11:46:25.099Z,164.35
2022-10-18T11:47:25.192Z,165.48
2022-10-18T11:48:25.265Z,163.86
2022-10-18T11:49:25.373Z,164.83
2022-10-18T11:50:25.433Z,164.18
2022-10-18T11:51:33.956Z,163.86
2022-10-18T11:52:25.684Z,164.67
2022-10-18T11:53:25.629Z,165.15
2022-10-18T11:54:25.732Z,164.18
2022-10-18T11:55:28.939Z,164.35
2022-10-18T11:56:25.874Z,164.51
2022-10-18T11:57:25.948Z,164.67
2022-10-18T11:58:26.110Z,164.51
2022-10-18T11:59:26.122Z,164.51
2022-10-18T12:01:28.506Z,164.83
2022-10-18T12:02:26.418Z,165.31
2022-10-18T12:03:26.420Z,165.15
2022-10-18T12:04:26.564Z,165.31
2022-10-18T12:05:26.581Z,164.51
2022-10-18T12:06:26.682Z,165.31
2022-10-18T12:07:30.231Z,165.80
2022-10-18T12:08:26.825Z,165.64
2022-10-18T12:09:26.886Z,164.51
2022-10-18T12:10:39.275Z,164.51
2022-10-18T12:11:27.059Z,164.18
2022-10-18T12:12:27.152Z,164.51
2022-10-18T12:13:27.261Z,165.31
2022-10-18T12:14:27.321Z,165.15
2022-10-18T12:15:27.395Z,164.83
2022-10-18T12:16:49.600Z,164.99
2022-10-18T12:17:42.717Z,165.31
2022-10-18T12:18:27.654Z,165.97
2022-10-18T12:19:27.724Z,166.29
2022-10-18T12:20:27.808Z,165.31
2022-10-18T12:21:27.869Z,164.83
2022-10-18T12:22:27.967Z,164.35
2022-10-18T12:23:28.045Z,165.97
2022-10-18T12:24:28.180Z,166.13
2022-10-18T12:25:28.218Z,164.67
2022-10-18T12:26:28.329Z,166.29
2022-10-18T12:27:28.367Z,164.83
2022-10-18T12:28:28.511Z,165.15
2022-10-18T12:29:28.577Z,166.29
2022-10-18T12:30:28.645Z,164.99
2022-10-18T12:31:28.722Z,165.15
2022-10-18T12:32:28.868Z,164.99